sensor_id;sensor_type;location;lat;lon;timestamp;pressure;altitude;pressure_sealevel;temperature;humidity
28935;BME280;16044;52.726;-2.108;2023-03-01T00:01:31;102525.22;;;5.27;98.75
28935;BME280;16044;52.726;-2.108;2023-03-01T00:03:59;102517.16;;;5.27;98.97
28935;BME280;16044;52.726;-2.108;2023-03-01T00:06:26;102528.25;;;5.21;99.00
28935;BME280;16044;52.726;-2.108;2023-03-01T00:08:55;102532.50;;;5.25;98.71
28935;BME280;16044;52.726;-2.108;2023-03-01T00:11:28;102526.25;;;5.25;98.91
28935;BME280;16044;52.726;-2.108;2023-03-01T00:13:58;102521.91;;;5.22;99.10
28935;BME280;16044;52.726;-2.108;2023-03-01T00:16:30;102523.75;;;5.22;99.39
28935;BME280;16044;52.726;-2.108;2023-03-01T00:19:00;102529.22;;;5.20;99.71
28935;BME280;16044;52.726;-2.108;2023-03-01T00:21:28;102521.16;;;5.20;100.00
28935;BME280;16044;52.726;-2.108;2023-03-01T00:23:55;102523.75;;;5.22;100.00
28935;BME280;16044;52.726;-2.108;2023-03-01T00:26:24;102531.13;;;5.18;100.00
28935;BME280;16044;52.726;-2.108;2023-03-01T00:28:52;102527.56;;;5.18;100.00
28935;BME280;16044;52.726;-2.108;2023-03-01T00:31:25;102521.69;;;5.11;100.00
28935;BME280;16044;52.726;-2.108;2023-03-01T00:33:59;102528.78;;;5.12;100.00
28935;BME280;16044;52.726;-2.108;2023-03-01T00:36:30;102520.16;;;5.07;100.00
28935;BME280;16044;52.726;-2.108;2023-03-01T00:38:59;102512.94;;;5.07;100.00
28935;BME280;16044;52.726;-2.108;2023-03-01T00:41:26;102521.09;;;5.06;100.00
28935;BME280;16044;52.726;-2.108;2023-03-01T00:43:53;102515.81;;;5.04;100.00
28935;BME280;16044;52.726;-2.108;2023-03-01T00:46:23;102520.31;;;5.04;100.00
28935;BME280;16044;52.726;-2.108;2023-03-01T00:48:52;102517.72;;;5.02;100.00
28935;BME280;16044;52.726;-2.108;2023-03-01T00:51:22;102518.84;;;4.98;100.00
28935;BME280;16044;52.726;-2.108;2023-03-01T00:53:51;102516.47;;;4.94;100.00
28935;BME280;16044;52.726;-2.108;2023-03-01T00:56:23;102512.53;;;4.99;100.00
28935;BME280;16044;52.726;-2.108;2023-03-01T00:58:51;102518.84;;;4.98;100.00
28935;BME280;16044;52.726;-2.108;2023-03-01T01:01:20;102515.22;;;4.99;100.00
28935;BME280;16044;52.726;-2.108;2023-03-01T01:03:51;102518.78;;;5.00;100.00
28935;BME280;16044;52.726;-2.108;2023-03-01T01:06:29;102522.59;;;4.96;100.00
28935;BME280;16044;52.726;-2.108;2023-03-01T01:08:59;102517.22;;;4.96;100.00
28935;BME280;16044;52.726;-2.108;2023-03-01T01:11:28;102510.88;;;4.97;100.00
28935;BME280;16044;52.726;-2.108;2023-03-01T01:13:56;102513.56;;;4.97;100.00
28935;BME280;16044;52.726;-2.108;2023-03-01T01:16:26;102513.00;;;4.92;100.00
28935;BME280;16044;52.726;-2.108;2023-03-01T01:18:55;102501.09;;;4.96;100.00
28935;BME280;16044;52.726;-2.108;2023-03-01T01:21:24;102509.09;;;4.97;100.00
28935;BME280;16044;52.726;-2.108;2023-03-01T01:23:51;102504.72;;;4.95;100.00
28935;BME280;16044;52.726;-2.108;2023-03-01T01:26:22;102508.97;;;4.99;100.00
28935;BME280;16044;52.726;-2.108;2023-03-01T01:28:51;102503.03;;;4.94;100.00
28935;BME280;16044;52.726;-2.108;2023-03-01T01:31:19;102503.97;;;4.93;100.00
28935;BME280;16044;52.726;-2.108;2023-03-01T01:33:46;102505.72;;;4.94;100.00
28935;BME280;16044;52.726;-2.108;2023-03-01T01:36:13;102495.03;;;4.92;100.00
28935;BME280;16044;52.726;-2.108;2023-03-01T01:38:40;102495.22;;;4.89;100.00
28935;BME280;16044;52.726;-2.108;2023-03-01T01:41:10;102494.19;;;4.92;100.00
28935;BME280;16044;52.726;-2.108;2023-03-01T01:43:48;102493.28;;;4.91;100.00
28935;BME280;16044;52.726;-2.108;2023-03-01T01:46:37;102491.50;;;4.92;100.00
28935;BME280;16044;52.726;-2.108;2023-03-01T01:49:32;102486.13;;;4.92;100.00
28935;BME280;16044;52.726;-2.108;2023-03-01T01:52:04;102478.84;;;4.94;100.00
28935;BME280;16044;52.726;-2.108;2023-03-01T01:54:43;102473.63;;;4.91;100.00
28935;BME280;16044;52.726;-2.108;2023-03-01T01:57:18;102469.03;;;4.93;100.00
28935;BME280;16044;52.726;-2.108;2023-03-01T01:59:51;102453.28;;;4.86;100.00
28935;BME280;16044;52.726;-2.108;2023-03-01T02:02:20;102463.81;;;4.89;100.00
28935;BME280;16044;52.726;-2.108;2023-03-01T02:04:48;102456.56;;;4.92;100.00
28935;BME280;16044;52.726;-2.108;2023-03-01T02:07:23;102456.72;;;4.88;100.00
28935;BME280;16044;52.726;-2.108;2023-03-01T02:09:52;102454.81;;;4.91;100.00
28935;BME280;16044;52.726;-2.108;2023-03-01T02:12:23;102455.19;;;4.84;100.00
28935;BME280;16044;52.726;-2.108;2023-03-01T02:14:50;102441.56;;;4.87;100.00
28935;BME280;16044;52.726;-2.108;2023-03-01T02:17:18;102442.69;;;4.83;100.00
28935;BME280;16044;52.726;-2.108;2023-03-01T02:30:36;102439.78;;;4.72;100.00
28935;BME280;16044;52.726;-2.108;2023-03-01T02:33:04;102447.16;;;4.68;100.00
28935;BME280;16044;52.726;-2.108;2023-03-01T02:35:33;102429.13;;;4.71;100.00
28935;BME280;16044;52.726;-2.108;2023-03-01T02:38:06;102431.81;;;4.71;100.00
28935;BME280;16044;52.726;-2.108;2023-03-01T02:40:35;102424.03;;;4.66;100.00
28935;BME280;16044;52.726;-2.108;2023-03-01T02:43:08;102417.91;;;4.64;100.00
28935;BME280;16044;52.726;-2.108;2023-03-01T02:45:36;102421.53;;;4.63;100.00
28935;BME280;16044;52.726;-2.108;2023-03-01T02:48:03;102420.59;;;4.64;100.00
28935;BME280;16044;52.726;-2.108;2023-03-01T02:53:15;102409.84;;;4.64;100.00
28935;BME280;16044;52.726;-2.108;2023-03-01T02:55:45;102402.72;;;4.63;100.00
28935;BME280;16044;52.726;-2.108;2023-03-01T02:58:12;102404.63;;;4.61;100.00
28935;BME280;16044;52.726;-2.108;2023-03-01T03:00:41;102401.00;;;4.62;100.00
28935;BME280;16044;52.726;-2.108;2023-03-01T03:03:15;102406.53;;;4.59;100.00
28935;BME280;16044;52.726;-2.108;2023-03-01T03:05:46;102401.00;;;4.62;100.00
28935;BME280;16044;52.726;-2.108;2023-03-01T03:08:14;102411.91;;;4.59;100.00
28935;BME280;16044;52.726;-2.108;2023-03-01T03:10:50;102409.16;;;4.60;100.00
28935;BME280;16044;52.726;-2.108;2023-03-01T03:13:17;102397.56;;;4.60;100.00
28935;BME280;16044;52.726;-2.108;2023-03-01T03:15:45;102401.19;;;4.59;100.00
28935;BME280;16044;52.726;-2.108;2023-03-01T03:18:16;102395.81;;;4.59;100.00
28935;BME280;16044;52.726;-2.108;2023-03-01T03:20:44;102393.88;;;4.61;100.00
28935;BME280;16044;52.726;-2.108;2023-03-01T03:23:11;102389.41;;;4.61;100.00
28935;BME280;16044;52.726;-2.108;2023-03-01T03:25:39;102387.38;;;4.65;100.00
28935;BME280;16044;52.726;-2.108;2023-03-01T03:28:07;102386.44;;;4.66;100.00
28935;BME280;16044;52.726;-2.108;2023-03-01T03:30:39;102386.81;;;4.60;100.00
28935;BME280;16044;52.726;-2.108;2023-03-01T03:33:08;102382.22;;;4.62;100.00
28935;BME280;16044;52.726;-2.108;2023-03-01T03:35:49;102384.69;;;4.65;100.00
28935;BME280;16044;52.726;-2.108;2023-03-01T03:38:18;102381.91;;;4.66;100.00
28935;BME280;16044;52.726;-2.108;2023-03-01T03:41:02;102379.31;;;4.65;100.00
28935;BME280;16044;52.726;-2.108;2023-03-01T03:43:33;102385.84;;;4.61;100.00
28935;BME280;16044;52.726;-2.108;2023-03-01T03:46:02;102383.75;;;4.66;100.00
28935;BME280;16044;52.726;-2.108;2023-03-01T03:48:34;102382.81;;;4.67;100.00
28935;BME280;16044;52.726;-2.108;2023-03-01T03:51:13;102386.44;;;4.66;100.00
28935;BME280;16044;52.726;-2.108;2023-03-01T03:53:42;102383.56;;;4.69;100.00
28935;BME280;16044;52.726;-2.108;2023-03-01T03:56:10;102370.16;;;4.69;100.00
28935;BME280;16044;52.726;-2.108;2023-03-01T03:58:37;102372.91;;;4.67;100.00
28935;BME280;16044;52.726;-2.108;2023-03-01T04:01:05;102373.59;;;4.71;100.00
28935;BME280;16044;52.726;-2.108;2023-03-01T04:03:32;102370.03;;;4.71;100.00
28935;BME280;16044;52.726;-2.108;2023-03-01T04:06:02;102368.22;;;4.71;100.00
28935;BME280;16044;52.726;-2.108;2023-03-01T04:08:31;102364.78;;;4.69;100.00
28935;BME280;16044;52.726;-2.108;2023-03-01T04:11:01;102359.66;;;4.64;100.00
28935;BME280;16044;52.726;-2.108;2023-03-01T04:13:48;102367.91;;;4.61;100.00
28935;BME280;16044;52.726;-2.108;2023-03-01T04:16:15;102371.63;;;4.59;100.00
28935;BME280;16044;52.726;-2.108;2023-03-01T04:18:42;102364.56;;;4.58;100.00
28935;BME280;16044;52.726;-2.108;2023-03-01T04:21:10;102358.41;;;4.56;100.00
28935;BME280;16044;52.726;-2.108;2023-03-01T04:23:37;102357.34;;;4.58;100.00
28935;BME280;16044;52.726;-2.108;2023-03-01T04:26:05;102358.13;;;4.60;100.00
28935;BME280;16044;52.726;-2.108;2023-03-01T04:28:34;102364.19;;;4.64;100.00
28935;BME280;16044;52.726;-2.108;2023-03-01T04:31:07;102355.94;;;4.67;100.00
28935;BME280;16044;52.726;-2.108;2023-03-01T04:33:52;102355.25;;;4.63;100.00
28935;BME280;16044;52.726;-2.108;2023-03-01T04:36:23;102356.28;;;4.61;100.00
28935;BME280;16044;52.726;-2.108;2023-03-01T04:38:52;102355.97;;;4.51;100.00
28935;BME280;16044;52.726;-2.108;2023-03-01T04:41:21;102349.56;;;4.54;100.00
28935;BME280;16044;52.726;-2.108;2023-03-01T04:43:49;102355.13;;;4.51;100.00
28935;BME280;16044;52.726;-2.108;2023-03-01T04:46:18;102353.69;;;4.59;100.00
28935;BME280;16044;52.726;-2.108;2023-03-01T04:48:46;102351.47;;;4.52;100.00
28935;BME280;16044;52.726;-2.108;2023-03-01T04:51:17;102354.66;;;4.58;100.00
28935;BME280;16044;52.726;-2.108;2023-03-01T04:53:45;102350.06;;;4.60;100.00
28935;BME280;16044;52.726;-2.108;2023-03-01T04:56:12;102359.56;;;4.66;100.00
28935;BME280;16044;52.726;-2.108;2023-03-01T04:58:42;102353.69;;;4.59;100.00
28935;BME280;16044;52.726;-2.108;2023-03-01T05:01:11;102357.06;;;4.63;100.00
28935;BME280;16044;52.726;-2.108;2023-03-01T05:03:47;102349.97;;;4.62;100.00
28935;BME280;16044;52.726;-2.108;2023-03-01T05:06:16;102359.56;;;4.66;99.73
28935;BME280;16044;52.726;-2.108;2023-03-01T05:08:45;102351.59;;;4.64;99.63
28935;BME280;16044;52.726;-2.108;2023-03-01T05:11:12;102348.81;;;4.66;99.67
28935;BME280;16044;52.726;-2.108;2023-03-01T05:13:40;102339.22;;;4.62;99.80
28935;BME280;16044;52.726;-2.108;2023-03-01T05:16:08;102339.81;;;4.67;99.69
28935;BME280;16044;52.726;-2.108;2023-03-01T05:18:40;102335.31;;;4.67;99.64
28935;BME280;16044;52.726;-2.108;2023-03-01T05:21:12;102329.09;;;4.67;99.79
28935;BME280;16044;52.726;-2.108;2023-03-01T05:23:44;102325.59;;;4.65;99.92
28935;BME280;16044;52.726;-2.108;2023-03-01T05:26:11;102330.31;;;4.61;100.00
28935;BME280;16044;52.726;-2.108;2023-03-01T05:28:53;102335.09;;;4.71;99.93
28935;BME280;16044;52.726;-2.108;2023-03-01T05:31:26;102333.47;;;4.68;100.00
28935;BME280;16044;52.726;-2.108;2023-03-01T05:33:53;102339.63;;;4.70;100.00
28935;BME280;16044;52.726;-2.108;2023-03-01T05:36:20;102336.84;;;4.72;100.00
28935;BME280;16044;52.726;-2.108;2023-03-01T05:38:47;102333.47;;;4.68;100.00
28935;BME280;16044;52.726;-2.108;2023-03-01T05:41:15;102344.81;;;4.73;100.00
28935;BME280;16044;52.726;-2.108;2023-03-01T05:43:43;102329.72;;;4.71;100.00
28935;BME280;16044;52.726;-2.108;2023-03-01T05:46:11;102338.69;;;4.71;100.00
28935;BME280;16044;52.726;-2.108;2023-03-01T05:48:39;102330.63;;;4.71;100.00
28935;BME280;16044;52.726;-2.108;2023-03-01T05:51:06;102327.16;;;4.69;100.00
28935;BME280;16044;52.726;-2.108;2023-03-01T05:53:33;102323.88;;;4.64;100.00
28935;BME280;16044;52.726;-2.108;2023-03-01T05:56:03;102329.44;;;4.61;100.00
28935;BME280;16044;52.726;-2.108;2023-03-01T05:58:30;102324.34;;;4.56;100.00
28935;BME280;16044;52.726;-2.108;2023-03-01T06:00:58;102325.38;;;4.54;100.00
28935;BME280;16044;52.726;-2.108;2023-03-01T06:03:24;102315.00;;;4.47;100.00
28935;BME280;16044;52.726;-2.108;2023-03-01T06:05:56;102313.38;;;4.45;100.00
28935;BME280;16044;52.726;-2.108;2023-03-01T06:08:23;102322.22;;;4.47;100.00
28935;BME280;16044;52.726;-2.108;2023-03-01T06:10:53;102323.28;;;4.44;100.00
28935;BME280;16044;52.726;-2.108;2023-03-01T06:13:20;102321.16;;;4.49;100.00
28935;BME280;16044;52.726;-2.108;2023-03-01T06:15:47;102328.44;;;4.47;100.00
28935;BME280;16044;52.726;-2.108;2023-03-01T06:18:14;102331.91;;;4.49;100.00
28935;BME280;16044;52.726;-2.108;2023-03-01T06:20:41;102316.69;;;4.50;100.00
28935;BME280;16044;52.726;-2.108;2023-03-01T06:23:08;102331.72;;;4.53;100.00
28935;BME280;16044;52.726;-2.108;2023-03-01T06:25:37;102334.59;;;4.49;100.00
28935;BME280;16044;52.726;-2.108;2023-03-01T06:28:04;102337.19;;;4.51;100.00
28935;BME280;16044;52.726;-2.108;2023-03-01T06:30:31;102337.25;;;4.49;100.00
28935;BME280;16044;52.726;-2.108;2023-03-01T06:32:58;102342.28;;;4.56;100.00
28935;BME280;16044;52.726;-2.108;2023-03-01T06:35:27;102341.50;;;4.54;100.00
28935;BME280;16044;52.726;-2.108;2023-03-01T06:38:00;102342.28;;;4.56;100.00
28935;BME280;16044;52.726;-2.108;2023-03-01T06:40:29;102335.34;;;4.52;100.00
28935;BME280;16044;52.726;-2.108;2023-03-01T06:42:57;102331.56;;;4.56;100.00
28935;BME280;16044;52.726;-2.108;2023-03-01T06:45:25;102327.91;;;4.57;100.00
28935;BME280;16044;52.726;-2.108;2023-03-01T06:47:52;102328.56;;;4.60;100.00
28935;BME280;16044;52.726;-2.108;2023-03-01T06:50:18;102328.75;;;4.57;100.00
28935;BME280;16044;52.726;-2.108;2023-03-01T06:52:45;102327.03;;;4.56;100.00
28935;BME280;16044;52.726;-2.108;2023-03-01T06:55:12;102331.25;;;4.60;100.00
28935;BME280;16044;52.726;-2.108;2023-03-01T06:57:40;102336.94;;;4.56;100.00
28935;BME280;16044;52.726;-2.108;2023-03-01T07:00:07;102336.94;;;4.56;100.00
28935;BME280;16044;52.726;-2.108;2023-03-01T07:02:34;102337.69;;;4.58;100.00
28935;BME280;16044;52.726;-2.108;2023-03-01T07:05:02;102336.94;;;4.56;100.00
28935;BME280;16044;52.726;-2.108;2023-03-01T07:07:29;102343.53;;;4.50;100.00
28935;BME280;16044;52.726;-2.108;2023-03-01T07:09:56;102342.06;;;4.44;100.00
28935;BME280;16044;52.726;-2.108;2023-03-01T07:12:23;102341.31;;;4.42;100.00
28935;BME280;16044;52.726;-2.108;2023-03-01T07:14:50;102337.03;;;4.38;100.00
28935;BME280;16044;52.726;-2.108;2023-03-01T07:17:17;102341.06;;;4.31;100.00
28935;BME280;16044;52.726;-2.108;2023-03-01T07:19:45;102340.94;;;4.33;100.00
28935;BME280;16044;52.726;-2.108;2023-03-01T07:22:12;102346.44;;;4.31;100.00
28935;BME280;16044;52.726;-2.108;2023-03-01T07:24:39;102355.44;;;4.30;100.00
28935;BME280;16044;52.726;-2.108;2023-03-01T07:27:05;102354.50;;;4.31;100.00
28935;BME280;16044;52.726;-2.108;2023-03-01T07:29:33;102356.03;;;4.35;100.00
28935;BME280;16044;52.726;-2.108;2023-03-01T07:31:59;102355.34;;;4.32;100.00
28935;BME280;16044;52.726;-2.108;2023-03-01T07:34:26;102358.63;;;4.37;100.00
28935;BME280;16044;52.726;-2.108;2023-03-01T07:36:53;102362.94;;;4.39;100.00
28935;BME280;16044;52.726;-2.108;2023-03-01T07:39:20;102359.72;;;4.48;100.00
28935;BME280;16044;52.726;-2.108;2023-03-01T07:41:50;102360.97;;;4.57;100.00
28935;BME280;16044;52.726;-2.108;2023-03-01T07:44:17;102347.84;;;4.53;100.00
28935;BME280;16044;52.726;-2.108;2023-03-01T07:46:44;102344.88;;;4.57;100.00
28935;BME280;16044;52.726;-2.108;2023-03-01T07:49:11;102356.50;;;4.58;100.00
28935;BME280;16044;52.726;-2.108;2023-03-01T07:51:38;102361.88;;;4.58;100.00
28935;BME280;16044;52.726;-2.108;2023-03-01T07:54:05;102368.78;;;4.62;100.00
28935;BME280;16044;52.726;-2.108;2023-03-01T07:56:32;102364.09;;;4.65;100.00
28935;BME280;16044;52.726;-2.108;2023-03-01T07:58:59;102365.81;;;4.66;100.00
28935;BME280;16044;52.726;-2.108;2023-03-01T08:01:26;102368.91;;;4.75;99.82
28935;BME280;16044;52.726;-2.108;2023-03-01T08:03:53;102360.25;;;4.69;99.77
28935;BME280;16044;52.726;-2.108;2023-03-01T08:06:20;102355.34;;;4.76;99.96
28935;BME280;16044;52.726;-2.108;2023-03-01T08:08:47;102348.38;;;4.74;99.68
28935;BME280;16044;52.726;-2.108;2023-03-01T08:11:14;102353.47;;;4.78;99.28
28935;BME280;16044;52.726;-2.108;2023-03-01T08:13:43;102358.38;;;4.86;99.26
28935;BME280;16044;52.726;-2.108;2023-03-01T08:16:13;102347.34;;;4.91;98.79
28935;BME280;16044;52.726;-2.108;2023-03-01T08:18:41;102348.88;;;4.95;98.58
28935;BME280;16044;52.726;-2.108;2023-03-01T08:21:11;102350.22;;;5.02;98.74
28935;BME280;16044;52.726;-2.108;2023-03-01T08:23:40;102355.31;;;5.06;98.68
28935;BME280;16044;52.726;-2.108;2023-03-01T08:26:18;102347.16;;;5.08;98.35
28935;BME280;16044;52.726;-2.108;2023-03-01T08:28:48;102363.69;;;5.16;97.48
28935;BME280;16044;52.726;-2.108;2023-03-01T08:31:19;102356.56;;;5.15;97.63
28935;BME280;16044;52.726;-2.108;2023-03-01T08:33:55;102360.03;;;5.17;97.18
28935;BME280;16044;52.726;-2.108;2023-03-01T08:36:26;102366.16;;;5.19;97.17
28935;BME280;16044;52.726;-2.108;2023-03-01T08:38:59;102364.81;;;5.26;97.15
28935;BME280;16044;52.726;-2.108;2023-03-01T08:41:26;102364.75;;;5.28;97.08
28935;BME280;16044;52.726;-2.108;2023-03-01T08:43:54;102368.78;;;5.35;97.21
28935;BME280;16044;52.726;-2.108;2023-03-01T08:46:30;102374.03;;;5.37;96.92
28935;BME280;16044;52.726;-2.108;2023-03-01T08:48:59;102375.78;;;5.38;96.74
28935;BME280;16044;52.726;-2.108;2023-03-01T08:51:26;102372.22;;;5.37;96.64
28935;BME280;16044;52.726;-2.108;2023-03-01T08:53:53;102381.91;;;5.40;96.64
28935;BME280;16044;52.726;-2.108;2023-03-01T08:56:20;102381.91;;;5.40;97.02
28935;BME280;16044;52.726;-2.108;2023-03-01T08:58:48;102369.44;;;5.39;97.25
28935;BME280;16044;52.726;-2.108;2023-03-01T09:01:18;102364.06;;;5.39;97.05
28935;BME280;16044;52.726;-2.108;2023-03-01T09:03:46;102372.03;;;5.40;97.47
28935;BME280;16044;52.726;-2.108;2023-03-01T09:06:14;102370.00;;;5.44;97.89
28935;BME280;16044;52.726;-2.108;2023-03-01T09:08:44;102372.91;;;5.41;98.58
28935;BME280;16044;52.726;-2.108;2023-03-01T09:11:16;102359.63;;;5.38;99.11
28935;BME280;16044;52.726;-2.108;2023-03-01T09:13:46;102357.72;;;5.40;99.54
28935;BME280;16044;52.726;-2.108;2023-03-01T09:16:15;102357.91;;;5.51;99.38
28935;BME280;16044;52.726;-2.108;2023-03-01T09:18:45;102354.94;;;5.56;99.81
28935;BME280;16044;52.726;-2.108;2023-03-01T09:21:15;102358.44;;;5.71;99.02
28935;BME280;16044;52.726;-2.108;2023-03-01T09:23:50;102358.06;;;5.77;99.33
28935;BME280;16044;52.726;-2.108;2023-03-01T09:26:19;102354.78;;;5.86;98.69
28935;BME280;16044;52.726;-2.108;2023-03-01T09:28:50;102348.31;;;5.89;97.99
28935;BME280;16044;52.726;-2.108;2023-03-01T09:31:20;102347.06;;;5.94;97.75
28935;BME280;16044;52.726;-2.108;2023-03-01T09:33:50;102345.06;;;5.98;97.04
28935;BME280;16044;52.726;-2.108;2023-03-01T09:36:20;102333.44;;;5.97;96.96
28935;BME280;16044;52.726;-2.108;2023-03-01T09:38:49;102332.03;;;6.04;96.93
28935;BME280;16044;52.726;-2.108;2023-03-01T09:41:48;102327.63;;;6.03;96.94
28935;BME280;16044;52.726;-2.108;2023-03-01T09:47:24;102320.41;;;6.04;93.26
28935;BME280;16044;52.726;-2.108;2023-03-01T09:52:40;102307.47;;;5.96;93.35
28935;BME280;16044;52.726;-2.108;2023-03-01T09:55:13;102306.84;;;6.05;93.63
28935;BME280;16044;52.726;-2.108;2023-03-01T09:58:50;102315.38;;;6.12;93.52
28935;BME280;16044;52.726;-2.108;2023-03-01T10:01:05;102298.16;;;6.15;92.87
28935;BME280;16044;52.726;-2.108;2023-03-01T10:06:26;102285.78;;;6.25;92.09
28935;BME280;16044;52.726;-2.108;2023-03-01T10:09:16;102282.69;;;6.31;91.56
28935;BME280;16044;52.726;-2.108;2023-03-01T10:11:48;102283.13;;;6.38;91.29
28935;BME280;16044;52.726;-2.108;2023-03-01T10:14:33;102268.38;;;6.43;91.86
28935;BME280;16044;52.726;-2.108;2023-03-01T10:20:18;102265.91;;;6.66;91.23
28935;BME280;16044;52.726;-2.108;2023-03-01T10:22:50;102274.56;;;6.71;90.27
28935;BME280;16044;52.726;-2.108;2023-03-01T10:25:36;102264.63;;;6.72;89.61
28935;BME280;16044;52.726;-2.108;2023-03-01T10:31:49;102267.84;;;6.64;89.89
28935;BME280;16044;52.726;-2.108;2023-03-01T10:34:20;102268.41;;;6.69;89.65
28935;BME280;16044;52.726;-2.108;2023-03-01T10:36:51;102262.25;;;6.67;89.07
28935;BME280;16044;52.726;-2.108;2023-03-01T10:39:22;102270.31;;;6.67;88.25
28935;BME280;16044;52.726;-2.108;2023-03-01T10:41:58;102262.03;;;6.70;88.66
28935;BME280;16044;52.726;-2.108;2023-03-01T10:44:45;102265.47;;;6.72;88.76
28935;BME280;16044;52.726;-2.108;2023-03-01T10:47:21;102251.34;;;6.69;87.46
28935;BME280;16044;52.726;-2.108;2023-03-01T10:52:25;102248.75;;;6.67;87.78
28935;BME280;16044;52.726;-2.108;2023-03-01T10:55:19;102258.03;;;6.63;86.76
28935;BME280;16044;52.726;-2.108;2023-03-01T10:58:18;102255.59;;;6.60;87.03
28935;BME280;16044;52.726;-2.108;2023-03-01T11:00:51;102251.69;;;6.64;87.70
28935;BME280;16044;52.726;-2.108;2023-03-01T11:03:28;102258.69;;;6.67;86.53
28935;BME280;16044;52.726;-2.108;2023-03-01T11:06:20;102244.66;;;6.74;85.88
28935;BME280;16044;52.726;-2.108;2023-03-01T11:08:49;102247.47;;;6.86;86.04
28935;BME280;16044;52.726;-2.108;2023-03-01T11:11:29;102239.81;;;6.92;84.40
28935;BME280;16044;52.726;-2.108;2023-03-01T11:14:16;102236.78;;;6.97;84.48
28935;BME280;16044;52.726;-2.108;2023-03-01T11:22:48;102217.16;;;6.95;83.69
28935;BME280;16044;52.726;-2.108;2023-03-01T11:25:20;102223.31;;;6.97;83.59
28935;BME280;16044;52.726;-2.108;2023-03-01T11:27:51;102223.09;;;6.87;83.30
28935;BME280;16044;52.726;-2.108;2023-03-01T11:30:21;102224.72;;;6.90;83.12
28935;BME280;16044;52.726;-2.108;2023-03-01T11:33:02;102218.06;;;6.82;83.85
28935;BME280;16044;52.726;-2.108;2023-03-01T11:35:35;102217.50;;;6.77;83.42
28935;BME280;16044;52.726;-2.108;2023-03-01T11:41:08;102214.91;;;6.89;83.91
28935;BME280;16044;52.726;-2.108;2023-03-01T11:43:51;102210.34;;;7.02;83.31
28935;BME280;16044;52.726;-2.108;2023-03-01T11:58:40;102198.34;;;7.19;81.78
28935;BME280;16044;52.726;-2.108;2023-03-01T12:01:09;102195.97;;;7.14;81.93
28935;BME280;16044;52.726;-2.108;2023-03-01T12:04:10;102194.16;;;7.15;82.09
28935;BME280;16044;52.726;-2.108;2023-03-01T12:06:57;102179.00;;;7.25;81.38
28935;BME280;16044;52.726;-2.108;2023-03-01T12:16:07;102168.31;;;7.23;81.63
28935;BME280;16044;52.726;-2.108;2023-03-01T12:36:31;102163.34;;;6.93;88.24
28935;BME280;16044;52.726;-2.108;2023-03-01T12:46:20;102156.34;;;6.91;90.02
28935;BME280;16044;52.726;-2.108;2023-03-01T12:49:03;102156.34;;;6.91;91.07
28935;BME280;16044;52.726;-2.108;2023-03-01T12:51:37;102152.13;;;6.99;91.15
28935;BME280;16044;52.726;-2.108;2023-03-01T12:54:14;102140.72;;;6.96;91.46
28935;BME280;16044;52.726;-2.108;2023-03-01T12:56:44;102138.53;;;7.01;91.93
28935;BME280;16044;52.726;-2.108;2023-03-01T13:05:18;102105.84;;;7.06;92.07
28935;BME280;16044;52.726;-2.108;2023-03-01T13:11:11;102095.69;;;7.09;90.82
28935;BME280;16044;52.726;-2.108;2023-03-01T13:13:43;102091.78;;;7.13;89.91
28935;BME280;16044;52.726;-2.108;2023-03-01T13:21:46;102070.59;;;7.20;90.38
28935;BME280;16044;52.726;-2.108;2023-03-01T13:24:33;102068.78;;;7.20;89.97
28935;BME280;16044;52.726;-2.108;2023-03-01T13:29:57;102060.28;;;7.14;89.73
28935;BME280;16044;52.726;-2.108;2023-03-01T13:32:34;102059.44;;;7.13;90.62
28935;BME280;16044;52.726;-2.108;2023-03-01T13:37:37;102063.97;;;7.13;91.04
28935;BME280;16044;52.726;-2.108;2023-03-01T13:42:54;102050.28;;;7.03;92.71
28935;BME280;16044;52.726;-2.108;2023-03-01T13:45:42;102041.72;;;6.98;93.26
28935;BME280;16044;52.726;-2.108;2023-03-01T13:48:16;102036.22;;;6.99;93.01
28935;BME280;16044;52.726;-2.108;2023-03-01T13:51:03;102034.00;;;7.05;93.11
28935;BME280;16044;52.726;-2.108;2023-03-01T13:53:46;102018.13;;;7.13;92.75
28935;BME280;16044;52.726;-2.108;2023-03-01T13:56:33;102005.25;;;7.16;92.69
28935;BME280;16044;52.726;-2.108;2023-03-01T13:59:06;101998.94;;;7.29;91.85
28935;BME280;16044;52.726;-2.108;2023-03-01T14:01:39;101997.38;;;7.37;91.34
28935;BME280;16044;52.726;-2.108;2023-03-01T14:04:27;101992.13;;;7.47;89.70
28935;BME280;16044;52.726;-2.108;2023-03-01T14:09:51;101976.91;;;7.57;87.23
28935;BME280;16044;52.726;-2.108;2023-03-01T14:16:18;101958.78;;;7.82;84.54
28935;BME280;16044;52.726;-2.108;2023-03-01T14:21:33;101958.25;;;7.99;83.20
28935;BME280;16044;52.726;-2.108;2023-03-01T14:24:01;101955.84;;;7.96;82.50
28935;BME280;16044;52.726;-2.108;2023-03-01T14:26:31;101955.59;;;7.88;82.71
28935;BME280;16044;52.726;-2.108;2023-03-01T14:28:59;101947.75;;;7.74;83.61
28935;BME280;16044;52.726;-2.108;2023-03-01T14:31:34;101940.38;;;7.65;84.90
28935;BME280;16044;52.726;-2.108;2023-03-01T14:34:20;101937.44;;;7.56;85.14
28935;BME280;16044;52.726;-2.108;2023-03-01T14:36:48;101945.25;;;7.48;85.44
28935;BME280;16044;52.726;-2.108;2023-03-01T14:39:34;101945.75;;;7.42;85.93
28935;BME280;16044;52.726;-2.108;2023-03-01T14:42:01;101939.38;;;7.43;86.38
28935;BME280;16044;52.726;-2.108;2023-03-01T14:44:42;101938.38;;;7.44;86.95
28935;BME280;16044;52.726;-2.108;2023-03-01T14:47:37;101938.38;;;7.44;87.62
28935;BME280;16044;52.726;-2.108;2023-03-01T14:50:26;101919.75;;;7.52;88.12
28935;BME280;16044;52.726;-2.108;2023-03-01T14:52:58;101926.50;;;7.58;88.26
28935;BME280;16044;52.726;-2.108;2023-03-01T14:55:35;101921.25;;;7.56;87.91
28935;BME280;16044;52.726;-2.108;2023-03-01T14:58:06;101920.63;;;7.64;88.47
28935;BME280;16044;52.726;-2.108;2023-03-01T15:00:36;101923.69;;;7.71;87.94
28935;BME280;16044;52.726;-2.108;2023-03-01T15:03:30;101914.34;;;7.75;87.91
28935;BME280;16044;52.726;-2.108;2023-03-01T15:06:04;101904.66;;;7.72;87.28